Time;durP1;ratioP1;P1;durP2;ratioP2;P2;SDS_P1;SDS_P2;PMS_P1;PMS_P2;Temp;Humidity;BMP_temperature;BMP_pressure;BME280_temperature;BME280_humidity;BME280_pressure;Samples;Min_cycle;Max_cycle;Signal;HPM_P1;HPM_P2
2023/08/04 00:01:22;;;;;;;9.20;7.80;;;;;;;26.46;46.53;100057.13;106739;1260;69340;-87
2023/08/04 00:03:48;;;;;;;8.30;7.50;;;;;;;26.47;46.55;100058.45;106882;1257;69225;-88
2023/08/04 00:06:13;;;;;;;10.00;8.00;;;;;;;26.47;46.92;100059.73;106999;1257;69301;-88
2023/08/04 00:08:39;;;;;;;8.80;7.70;;;;;;;26.46;46.71;100059.95;106841;1262;69159;-88
2023/08/04 00:11:04;;;;;;;9.10;7.90;;;;;;;26.46;46.71;100057.38;106991;1257;69222;-88
2023/08/04 00:13:30;;;;;;;9.60;7.70;;;;;;;26.46;46.70;100059.03;106544;1258;70207;-88
2023/08/04 00:16:06;;;;;;;9.90;7.90;;;;;;;26.46;46.76;100060.33;106823;1257;69177;-88
2023/08/04 00:18:32;;;;;;;9.40;7.90;;;;;;;26.45;46.66;100062.98;107340;1257;81617;-88
2023/08/04 00:20:57;;;;;;;14.40;8.00;;;;;;;26.46;46.70;100064.71;107250;1257;69283;-90
2023/08/04 00:23:23;;;;;;;9.60;7.70;;;;;;;26.45;46.76;100060.70;106854;1257;69230;-89
2023/08/04 00:25:57;;;;;;;9.40;8.10;;;;;;;26.45;46.95;100064.37;107070;1257;69340;-92
2023/08/04 00:28:23;;;;;;;8.70;7.80;;;;;;;26.45;46.74;100060.25;106713;1257;69084;-88
2023/08/04 00:30:49;;;;;;;10.50;8.40;;;;;;;26.46;46.87;100064.10;106880;1257;69280;-89
2023/08/04 00:33:14;;;;;;;9.40;7.80;;;;;;;26.46;46.84;100061.27;106845;1261;69658;-89
2023/08/04 00:35:40;;;;;;;9.20;8.10;;;;;;;26.45;46.92;100065.52;106816;1257;69289;-89
2023/08/04 00:38:05;;;;;;;8.40;7.60;;;;;;;26.45;46.99;100063.08;107079;1257;69119;-89
2023/08/04 00:40:31;;;;;;;10.70;8.50;;;;;;;26.45;46.83;100062.51;106679;1261;73432;-88
2023/08/04 00:42:56;;;;;;;8.80;7.90;;;;;;;26.45;46.95;100066.91;107004;1260;70335;-89
2023/08/04 00:45:23;;;;;;;10.70;7.90;;;;;;;26.45;47.05;100063.77;107049;1257;69229;-89
2023/08/04 00:47:48;;;;;;;9.90;8.10;;;;;;;26.45;47.08;100065.61;107021;1257;69238;-89
2023/08/04 00:50:13;;;;;;;11.40;7.50;;;;;;;26.45;47.28;100063.50;107109;1258;69221;-88
2023/08/04 00:52:45;;;;;;;8.70;7.60;;;;;;;26.44;47.01;100058.41;106749;1256;69261;-93
2023/08/04 00:55:11;;;;;;;8.10;7.30;;;;;;;26.44;47.07;100062.85;106583;1261;69581;-89
2023/08/04 00:57:37;;;;;;;10.00;7.90;;;;;;;26.45;46.98;100065.73;106862;1257;69087;-89
2023/08/04 01:00:03;;;;;;;10.20;8.10;;;;;;;26.44;46.97;100064.55;107073;1257;69238;-89
2023/08/04 01:02:29;;;;;;;10.10;7.90;;;;;;;26.44;47.08;100064.55;106987;1258;69283;-88
2023/08/04 01:04:55;;;;;;;9.30;8.20;;;;;;;26.44;47.07;100064.93;106978;1257;69213;-89
2023/08/04 01:07:24;;;;;;;9.80;7.80;;;;;;;26.44;47.06;100061.52;106500;1258;69223;-88
2023/08/04 01:10:16;;;;;;;9.30;8.20;;;;;;;26.43;47.21;100057.52;106861;1260;69176;-89
2023/08/04 01:12:59;;;;;;;8.60;7.70;;;;;;;26.43;47.18;100051.77;106842;1258;73646;-88
2023/08/04 01:15:25;;;;;;;11.30;7.90;;;;;;;26.42;47.20;100054.71;107051;1258;69114;-88
2023/08/04 01:17:51;;;;;;;9.80;8.00;;;;;;;26.42;47.09;100056.00;107019;1258;69203;-88
2023/08/04 01:20:17;;;;;;;9.00;8.10;;;;;;;26.43;47.25;100056.86;107054;1257;69212;-89
2023/08/04 01:22:42;;;;;;;9.70;7.90;;;;;;;26.42;47.10;100055.84;107076;1257;69333;-89
2023/08/04 01:25:08;;;;;;;9.20;7.90;;;;;;;26.42;47.10;100052.73;106573;1260;69171;-88
2023/08/04 01:27:46;;;;;;;8.90;8.00;;;;;;;26.43;47.16;100051.90;107094;1260;69251;-88
2023/08/04 01:30:18;;;;;;;9.90;7.60;;;;;;;26.42;47.28;100052.55;107002;1260;69154;-88
2023/08/04 01:32:44;;;;;;;9.10;7.70;;;;;;;26.42;47.24;100053.84;107053;1260;69175;-89
2023/08/04 01:35:09;;;;;;;11.00;8.30;;;;;;;26.42;47.41;100051.88;106985;1260;69243;-89
2023/08/04 01:37:35;;;;;;;9.60;8.50;;;;;;;26.42;47.37;100047.02;106819;1264;69292;-90
2023/08/04 01:40:00;;;;;;;8.80;7.80;;;;;;;26.42;47.31;100046.61;106528;1257;69251;-89
2023/08/04 01:42:26;;;;;;;9.30;8.20;;;;;;;26.42;47.19;100050.42;107032;1257;69308;-88
2023/08/04 01:44:51;;;;;;;9.20;7.90;;;;;;;26.42;47.29;100046.45;106948;1257;70333;-89
2023/08/04 01:47:17;;;;;;;9.30;8.00;;;;;;;26.42;47.15;100049.97;106880;1262;69344;-89
2023/08/04 01:49:42;;;;;;;8.10;7.40;;;;;;;26.41;47.39;100050.65;107123;1257;70277;-89
2023/08/04 01:52:08;;;;;;;9.00;7.80;;;;;;;26.41;47.18;100051.38;106692;1260;69303;-88
2023/08/04 01:54:33;;;;;;;10.70;8.00;;;;;;;26.41;47.20;100050.80;106941;1260;74184;-88
2023/08/04 01:56:59;;;;;;;9.40;7.80;;;;;;;26.41;47.25;100050.23;106845;1262;69302;-88
2023/08/04 01:59:24;;;;;;;9.00;7.90;;;;;;;26.41;47.30;100050.77;107222;1260;68256;-89
2023/08/04 02:01:50;;;;;;;8.60;7.80;;;;;;;26.41;47.37;100056.44;107045;1257;69232;-89
2023/08/04 02:06:48;;;;;;;8.80;7.90;;;;;;;26.41;47.20;100056.29;106996;1260;69133;-88
2023/08/04 02:09:14;;;;;;;9.20;7.80;;;;;;;26.40;47.40;100054.13;106939;1256;69251;-89
2023/08/04 02:11:40;;;;;;;9.40;7.90;;;;;;;26.41;47.27;100056.25;106849;1257;69343;-88
2023/08/04 02:14:06;;;;;;;8.00;7.20;;;;;;;26.40;47.36;100055.38;106865;1258;69199;-89
2023/08/04 02:16:31;;;;;;;9.80;8.30;;;;;;;26.40;47.32;100053.94;107093;1260;69256;-89
2023/08/04 02:19:08;;;;;;;9.00;7.70;;;;;;;26.40;47.14;100050.96;106791;1260;69346;-88
2023/08/04 02:21:33;;;;;;;9.20;7.80;;;;;;;26.40;47.09;100054.62;106916;1263;69321;-89
2023/08/04 02:23:59;;;;;;;7.70;7.00;;;;;;;26.40;47.24;100054.36;107078;1260;69222;-89
2023/08/04 02:26:24;;;;;;;8.80;7.90;;;;;;;26.40;47.25;100058.45;107099;1257;69344;-89
2023/08/04 02:28:51;;;;;;;10.10;7.60;;;;;;;26.39;47.49;100048.48;107018;1260;69227;-89
2023/08/04 02:31:23;;;;;;;8.50;7.70;;;;;;;26.39;47.30;100050.14;106729;1258;69340;-93
2023/08/04 02:33:49;;;;;;;10.00;7.90;;;;;;;26.39;47.49;100049.88;106714;1260;69219;-88
2023/08/04 02:36:14;;;;;;;10.00;7.40;;;;;;;26.39;47.35;100049.29;106776;1263;69293;-89
2023/08/04 02:38:39;;;;;;;8.20;7.40;;;;;;;26.39;47.48;100048.27;106970;1260;69210;-89
2023/08/04 02:41:05;;;;;;;9.00;7.70;;;;;;;26.39;47.31;100050.11;107078;1260;69224;-88
2023/08/04 02:43:31;;;;;;;8.90;7.40;;;;;;;26.38;47.30;100052.08;107051;1257;69228;-89
2023/08/04 02:45:56;;;;;;;8.50;7.50;;;;;;;26.38;47.45;100052.19;106599;1258;69684;-88
2023/08/04 02:48:21;;;;;;;10.70;7.50;;;;;;;26.38;47.47;100053.17;107104;1258;69266;-88
2023/08/04 02:50:56;;;;;;;9.40;7.40;;;;;;;26.37;47.51;100050.71;106849;1263;69280;-88
2023/08/04 02:53:22;;;;;;;9.50;7.80;;;;;;;26.37;47.33;100052.37;107474;1257;69609;-89
2023/08/04 02:55:47;;;;;;;104.60;11.70;;;;;;;26.36;47.55;100054.97;107098;1260;69171;-89
2023/08/04 02:58:20;;;;;;;92.90;11.00;;;;;;;26.35;47.71;100054.87;106767;1257;69190;-93
2023/08/04 03:00:45;;;;;;;46.00;9.60;;;;;;;26.34;47.70;100054.79;106764;1257;74221;-89
2023/08/04 03:03:11;;;;;;;26.80;8.80;;;;;;;26.33;47.79;100057.55;106931;1260;69232;-89
2023/08/04 03:05:36;;;;;;;24.80;8.50;;;;;;;26.33;47.75;100060.71;107042;1257;69247;-89
2023/08/04 03:08:02;;;;;;;15.10;8.40;;;;;;;26.32;48.12;100067.59;107042;1257;69107;-89
2023/08/04 03:10:28;;;;;;;23.10;8.80;;;;;;;26.31;48.01;100070.73;107041;1264;69539;-89
2023/08/04 03:12:53;;;;;;;12.90;8.10;;;;;;;26.29;48.26;100077.68;106523;1263;69091;-89
2023/08/04 03:15:18;;;;;;;13.50;8.10;;;;;;;26.28;48.13;100086.67;107034;1260;69309;-89
2023/08/04 03:17:44;;;;;;;12.40;7.80;;;;;;;26.26;48.31;100090.02;107097;1257;70302;-89
2023/08/04 03:20:10;;;;;;;13.10;8.10;;;;;;;26.25;48.25;100091.63;107171;1260;69225;-89
2023/08/04 03:22:35;;;;;;;11.10;7.80;;;;;;;26.23;48.16;100094.06;108062;1257;69181;-90
2023/08/04 03:25:21;;;;;;;9.10;7.60;;;;;;;26.23;48.30;100091.16;109699;1257;66740;-90
2023/08/04 03:27:47;;;;;;;8.90;8.00;;;;;;;26.22;48.48;100092.17;107113;1257;69199;-89
2023/08/04 03:30:12;;;;;;;12.50;8.10;;;;;;;26.21;48.33;100089.40;107049;1261;69231;-89
2023/08/04 03:32:38;;;;;;;9.80;7.60;;;;;;;26.19;48.20;100093.59;106849;1264;69305;-89
2023/08/04 03:35:03;;;;;;;9.40;7.60;;;;;;;26.16;48.23;100094.17;107157;1264;69136;-89
2023/08/04 03:37:29;;;;;;;11.70;7.90;;;;;;;26.15;48.26;100094.42;107088;1264;69237;-89
2023/08/04 03:42:38;;;;;;;11.00;7.90;;;;;;;26.13;48.33;100105.74;106893;1257;74068;-90
2023/08/04 03:45:07;;;;;;;10.70;8.00;;;;;;;26.11;48.22;100102.33;106915;1257;69280;-90
2023/08/04 03:47:34;;;;;;;9.50;7.90;;;;;;;26.10;48.24;100103.80;106952;1260;70082;-90
2023/08/04 03:50:05;;;;;;;9.60;7.80;;;;;;;26.09;48.35;100102.70;106846;1258;69194;-90
2023/08/04 03:52:31;;;;;;;11.50;8.50;;;;;;;26.09;48.36;100099.55;107059;1257;69008;-90
2023/08/04 03:55:08;;;;;;;14.10;8.40;;;;;;;26.09;48.25;100097.39;106610;1257;69223;-95
2023/08/04 03:57:34;;;;;;;10.80;8.30;;;;;;;26.08;48.34;100095.46;106631;1258;69158;-89
2023/08/04 04:00:00;;;;;;;9.50;8.50;;;;;;;26.07;48.29;100097.08;107006;1260;69257;-89
2023/08/04 04:02:26;;;;;;;11.90;8.30;;;;;;;26.06;48.32;100100.45;107054;1257;69226;-89
2023/08/04 04:04:52;;;;;;;17.60;8.30;;;;;;;26.05;48.25;100099.41;107074;1260;69333;-89
2023/08/04 04:07:17;;;;;;;9.50;7.70;;;;;;;26.03;48.27;100104.35;107095;1260;69210;-89
2023/08/04 04:09:43;;;;;;;10.20;7.70;;;;;;;26.02;48.47;100101.58;106859;1257;69230;-89
2023/08/04 04:12:08;;;;;;;10.10;8.20;;;;;;;26.02;48.42;100100.55;107180;1260;69102;-90
2023/08/04 04:14:34;;;;;;;11.10;8.10;;;;;;;26.03;48.32;100098.48;107012;1263;69229;-89
2023/08/04 04:17:00;;;;;;;9.30;7.90;;;;;;;26.03;48.41;100096.25;107936;1257;69158;-89
2023/08/04 04:19:26;;;;;;;11.90;8.00;;;;;;;26.03;48.33;100099.55;107288;1257;69212;-90
2023/08/04 04:21:59;;;;;;;10.00;7.70;;;;;;;26.04;48.47;100097.51;107010;1260;69171;-93
2023/08/04 04:24:25;;;;;;;8.90;7.60;;;;;;;26.05;48.49;100097.30;106951;1257;69104;-89
2023/08/04 04:26:50;;;;;;;11.00;7.50;;;;;;;26.06;48.41;100099.84;107170;1257;69216;-89
2023/08/04 04:29:16;;;;;;;8.60;7.70;;;;;;;26.07;48.41;100101.88;107291;1260;69214;-89
2023/08/04 04:31:41;;;;;;;10.60;7.60;;;;;;;26.08;48.38;100102.12;106945;1263;69235;-90
2023/08/04 04:34:07;;;;;;;12.00;7.50;;;;;;;26.09;48.27;100103.32;106808;1257;67894;-89
2023/08/04 04:36:32;;;;;;;12.70;7.80;;;;;;;26.09;48.42;100101.15;106625;1262;69757;-90
2023/08/04 04:39:00;;;;;;;14.70;8.80;;;;;;;26.09;48.33;100105.98;107143;1260;69206;-89
2023/08/04 04:41:27;;;;;;;9.80;7.90;;;;;;;26.09;48.33;100105.27;107146;1260;69357;-90
2023/08/04 04:43:53;;;;;;;9.90;8.10;;;;;;;26.10;48.40;100110.41;107054;1261;69206;-89
2023/08/04 04:46:19;;;;;;;10.50;8.20;;;;;;;26.09;48.35;100106.24;107665;1257;69241;-87
2023/08/04 04:51:17;;;;;;;11.90;8.10;;;;;;;26.10;48.32;100109.89;107344;1257;69148;-88
2023/08/04 04:53:43;;;;;;;9.40;7.30;;;;;;;26.12;48.55;100113.30;106972;1258;69163;-88
2023/08/04 04:56:10;;;;;;;12.40;7.80;;;;;;;26.13;48.29;100114.38;107315;1257;69737;-88
2023/08/04 04:58:35;;;;;;;9.50;7.80;;;;;;;26.13;48.35;100111.58;107032;1257;69236;-88
2023/08/04 05:01:04;;;;;;;12.80;8.20;;;;;;;26.13;48.35;100112.45;107489;1257;69237;-88
2023/08/04 05:03:30;;;;;;;10.80;9.70;;;;;;;26.14;48.33;100115.21;107278;1257;69227;-89
2023/08/04 05:05:57;;;;;;;12.80;9.40;;;;;;;26.15;48.30;100115.98;107187;1257;69283;-88
2023/08/04 05:08:23;;;;;;;10.40;8.30;;;;;;;26.15;48.27;100116.73;107379;1257;69194;-88
2023/08/04 05:10:52;;;;;;;11.30;8.30;;;;;;;26.15;48.35;100119.47;107330;1257;69307;-88
2023/08/04 05:13:17;;;;;;;9.20;7.90;;;;;;;26.15;48.22;100120.90;107416;1260;73267;-89
2023/08/04 05:15:48;;;;;;;15.30;9.00;;;;;;;26.17;48.36;100124.27;107302;1256;69430;-92
2023/08/04 05:18:15;;;;;;;17.40;8.50;;;;;;;26.17;48.36;100123.87;107073;1257;69203;-89
2023/08/04 05:20:44;;;;;;;14.30;11.90;;;;;;;26.17;48.23;100120.95;107291;1257;69670;-89
2023/08/04 05:23:10;;;;;;;13.90;12.30;;;;;;;26.18;48.38;100117.02;107559;1257;69188;-89
2023/08/04 05:25:35;;;;;;;17.00;13.60;;;;;;;26.19;48.22;100122.24;108352;1257;69218;-89
2023/08/04 05:28:30;;;;;;;25.50;11.80;;;;;;;26.19;47.94;100124.25;107424;1262;69279;-89
2023/08/04 05:30:57;;;;;;;25.60;12.50;;;;;;;26.19;47.73;100121.39;107262;1259;69214;-89
2023/08/04 05:33:24;;;;;;;17.70;10.00;;;;;;;26.19;47.70;100121.27;107292;1257;69340;-89
2023/08/04 05:35:49;;;;;;;14.90;9.90;;;;;;;26.19;47.79;100124.36;107321;1257;256429;-89
2023/08/04 05:38:15;;;;;;;15.40;9.20;;;;;;;26.20;47.62;100125.85;107485;1260;69190;-89
2023/08/04 05:40:43;;;;;;;14.70;9.20;;;;;;;26.19;47.58;100126.94;107116;1257;69230;-89
2023/08/04 05:43:10;;;;;;;11.60;9.10;;;;;;;26.19;47.66;100132.61;107415;1257;69119;-89
2023/08/04 05:45:42;;;;;;;12.90;8.80;;;;;;;26.20;47.62;100129.30;107292;1263;69228;-93
2023/08/04 05:48:08;;;;;;;11.20;8.70;;;;;;;26.21;47.61;100126.95;107115;1257;69108;-88
2023/08/04 05:50:33;;;;;;;12.20;8.80;;;;;;;26.21;47.70;100129.71;107256;1257;69101;-88
2023/08/04 05:52:59;;;;;;;14.00;9.30;;;;;;;26.22;47.57;100134.30;107317;1257;69238;-88
2023/08/04 05:55:24;;;;;;;10.40;8.50;;;;;;;26.22;47.56;100134.55;107307;1257;69174;-89
2023/08/04 05:57:50;;;;;;;11.40;8.40;;;;;;;26.21;47.37;100134.52;107101;1257;69741;-89
2023/08/04 06:00:17;;;;;;;11.50;7.90;;;;;;;26.21;47.46;100135.51;106870;1257;73291;-89
2023/08/04 06:02:44;;;;;;;10.30;8.00;;;;;;;26.21;47.56;100135.66;107243;1257;69194;-88
2023/08/04 06:05:14;;;;;;;11.10;8.50;;;;;;;26.21;47.66;100136.38;107238;1257;69189;-87
2023/08/04 06:07:40;;;;;;;9.10;8.20;;;;;;;26.22;47.68;100133.47;107308;1257;69603;-88
2023/08/04 06:10:06;;;;;;;9.30;8.20;;;;;;;26.23;47.79;100133.66;107401;1256;69164;-88
2023/08/04 06:12:35;;;;;;;15.40;9.80;;;;;;;26.23;47.72;100135.10;107158;1257;69420;-93
2023/08/04 06:15:02;;;;;;;13.50;10.20;;;;;;;26.23;47.79;100135.03;107100;1257;69235;-88
2023/08/04 06:17:27;;;;;;;15.70;13.40;;;;;;;26.24;47.74;100131.77;106988;1257;69219;-88
2023/08/04 06:19:52;;;;;;;17.80;14.90;;;;;;;26.24;47.58;100135.36;107012;1257;69292;-89
2023/08/04 06:22:18;;;;;;;19.90;16.90;;;;;;;26.25;47.68;100136.33;107021;1257;69204;-89
2023/08/04 06:24:43;;;;;;;19.90;15.20;;;;;;;26.26;47.80;100132.11;107102;1263;69191;-89
2023/08/04 06:27:09;;;;;;;28.80;21.70;;;;;;;26.26;47.88;100130.04;107173;1257;70207;-88
2023/08/04 06:29:35;;;;;;;29.10;24.80;;;;;;;26.28;47.79;100134.40;107212;1257;69225;-89
2023/08/04 06:32:01;;;;;;;24.80;20.60;;;;;;;26.28;47.60;100135.05;106913;1257;69648;-88
2023/08/04 06:34:26;;;;;;;23.80;21.30;;;;;;;26.29;47.68;100135.95;107356;1257;69222;-89
2023/08/04 06:36:52;;;;;;;22.60;18.60;;;;;;;26.30;47.91;100137.79;107346;1257;69149;-89
2023/08/04 06:41:57;;;;;;;22.60;16.40;;;;;;;26.31;47.72;100131.09;106755;1260;69169;-88
2023/08/04 06:44:23;;;;;;;18.00;15.10;;;;;;;26.32;47.71;100134.99;107044;1260;69187;-88
2023/08/04 06:46:48;;;;;;;17.30;14.40;;;;;;;26.34;47.66;100142.07;106929;1261;69229;-88
2023/08/04 06:49:14;;;;;;;19.20;17.20;;;;;;;26.35;47.70;100141.36;106984;1258;69229;-88
2023/08/04 06:51:40;;;;;;;24.70;21.40;;;;;;;26.36;47.77;100145.61;107070;1259;69365;-89
2023/08/04 06:54:08;;;;;;;21.80;19.40;;;;;;;26.38;47.87;100145.61;106720;1257;74203;-88
2023/08/04 06:56:34;;;;;;;23.50;18.60;;;;;;;26.39;47.93;100144.45;107070;1257;69209;-89
2023/08/04 06:58:59;;;;;;;24.80;18.90;;;;;;;26.40;47.86;100148.33;106893;1260;69251;-88
2023/08/04 07:01:25;;;;;;;23.90;18.80;;;;;;;26.42;47.85;100144.73;107076;1257;69245;-89
2023/08/04 07:03:50;;;;;;;18.20;15.60;;;;;;;26.43;47.83;100142.84;107528;1258;69165;-90
2023/08/04 07:08:53;;;;;;;16.50;14.20;;;;;;;26.45;47.72;100142.74;106880;1260;69117;-89
2023/08/04 07:11:19;;;;;;;18.90;14.50;;;;;;;26.47;47.85;100142.80;106981;1260;69196;-89
2023/08/04 07:13:44;;;;;;;19.60;14.80;;;;;;;26.47;47.81;100141.44;106975;1265;70276;-89
2023/08/04 07:16:10;;;;;;;20.30;15.00;;;;;;;26.49;47.68;100141.48;107228;1259;69245;-88
2023/08/04 07:18:37;;;;;;;18.00;16.10;;;;;;;26.50;47.82;100139.89;108352;1260;69331;-89
2023/08/04 07:23:42;;;;;;;18.80;15.30;;;;;;;26.52;47.66;100143.35;107004;1258;69102;-89
2023/08/04 07:26:08;;;;;;;17.90;15.60;;;;;;;26.53;47.57;100143.47;107074;1257;69247;-88
2023/08/04 07:28:34;;;;;;;15.20;13.40;;;;;;;26.54;47.63;100139.02;107190;1257;69200;-89
2023/08/04 07:31:09;;;;;;;17.70;12.90;;;;;;;26.55;47.55;100139.55;107144;1257;69287;-89
2023/08/04 07:33:36;;;;;;;14.40;12.90;;;;;;;26.57;47.54;100142.05;107297;1256;69222;-88
2023/08/04 07:36:01;;;;;;;17.50;11.90;;;;;;;26.58;47.67;100144.07;107093;1261;69219;-90
2023/08/04 07:38:27;;;;;;;18.00;11.10;;;;;;;26.60;47.53;100140.79;108835;1257;69227;-89
2023/08/04 07:40:53;;;;;;;14.00;11.00;;;;;;;26.62;47.65;100141.44;109757;1256;66443;-90
2023/08/04 07:43:18;;;;;;;14.20;10.70;;;;;;;26.64;47.67;100141.93;109832;1256;69187;-90
2023/08/04 07:45:44;;;;;;;12.70;10.10;;;;;;;26.66;47.64;100137.75;109032;1261;68977;-90
2023/08/04 07:48:13;;;;;;;14.30;11.00;;;;;;;26.68;47.67;100138.10;107684;1258;69209;-91
2023/08/04 07:50:40;;;;;;;13.50;10.50;;;;;;;26.70;47.56;100137.54;107576;1260;69187;-90
2023/08/04 07:53:09;;;;;;;13.40;10.30;;;;;;;26.71;47.57;100143.90;107750;1257;69238;-89
2023/08/04 07:55:35;;;;;;;16.50;12.60;;;;;;;26.73;47.52;100138.48;107622;1261;69193;-88
2023/08/04 07:58:01;;;;;;;12.20;10.80;;;;;;;26.74;47.56;100137.58;107800;1257;69149;-89
2023/08/04 08:00:26;;;;;;;12.10;10.30;;;;;;;26.75;47.28;100138.89;107816;1257;69859;-88
2023/08/04 08:02:52;;;;;;;15.70;14.00;;;;;;;26.75;47.48;100136.29;107292;1257;69207;-89
2023/08/04 08:05:17;;;;;;;16.10;14.40;;;;;;;26.76;47.30;100138.77;107547;1257;67370;-89
2023/08/04 08:07:46;;;;;;;17.60;15.50;;;;;;;26.75;47.31;100138.04;107163;1263;69248;-89
2023/08/04 08:10:11;;;;;;;24.90;21.70;;;;;;;26.76;47.41;100140.46;107338;1260;74606;-89
2023/08/04 08:12:51;;;;;;;21.80;19.50;;;;;;;26.76;47.21;100143.05;107397;1256;552138;-91
2023/08/04 08:15:38;;;;;;;20.80;18.60;;;;;;;26.75;46.98;100137.96;108503;1257;554964;-89
2023/08/04 08:18:21;;;;;;;19.80;17.80;;;;;;;26.76;47.04;100140.77;107360;1263;69208;31
2023/08/04 08:20:46;;;;;;;21.90;19.60;;;;;;;26.76;46.97;100140.20;107271;1257;69083;-89
2023/08/04 08:23:12;;;;;;;19.40;17.40;;;;;;;26.76;46.78;100142.52;107459;1257;70409;-88
2023/08/04 08:25:38;;;;;;;22.90;20.00;;;;;;;26.76;46.93;100140.54;107562;1257;69238;-89
2023/08/04 08:28:03;;;;;;;21.00;18.90;;;;;;;26.77;46.88;100139.04;107319;1263;69233;-89
2023/08/04 08:30:29;;;;;;;17.70;15.90;;;;;;;26.77;46.61;100138.31;107290;1257;69622;-89
2023/08/04 08:32:54;;;;;;;20.90;18.20;;;;;;;26.76;46.70;100137.36;106993;1257;74432;-90
2023/08/04 08:35:20;;;;;;;20.80;18.30;;;;;;;26.77;46.64;100139.45;106891;1257;69154;-89
2023/08/04 08:37:46;;;;;;;19.10;15.60;;;;;;;26.77;46.69;100138.77;107082;1256;69202;-89
2023/08/04 08:40:12;;;;;;;18.50;16.80;;;;;;;26.79;46.66;100137.38;107195;1257;69140;-89
2023/08/04 08:42:37;;;;;;;20.50;17.90;;;;;;;26.79;46.65;100134.16;107439;1256;69164;-89
2023/08/04 08:45:03;;;;;;;20.50;18.00;;;;;;;26.80;46.80;100135.96;107179;1257;69321;-89
2023/08/04 08:47:34;;;;;;;20.90;18.80;;;;;;;26.80;46.69;100136.99;107078;1260;69207;-88
2023/08/04 08:50:01;;;;;;;19.30;17.30;;;;;;;26.81;46.46;100134.77;107037;1257;69465;-88
2023/08/04 08:52:29;;;;;;;18.90;16.70;;;;;;;26.81;46.41;100133.94;107058;1257;69234;-87
2023/08/04 08:54:55;;;;;;;19.40;17.30;;;;;;;26.81;46.48;100135.34;107256;1264;73598;-88
2023/08/04 08:57:20;;;;;;;18.50;16.40;;;;;;;26.81;46.41;100135.95;107594;1260;69116;-89
2023/08/04 09:02:25;;;;;;;18.50;14.90;;;;;;;26.81;46.36;100137.52;107645;1257;69072;-88
2023/08/04 09:04:51;;;;;;;18.20;15.30;;;;;;;26.82;46.43;100134.17;107587;1257;69335;-88
2023/08/04 09:07:17;;;;;;;17.20;15.60;;;;;;;26.82;46.33;100132.65;107645;1257;69228;-88
2023/08/04 09:09:42;;;;;;;16.50;14.70;;;;;;;26.83;46.34;100133.15;107574;1264;69728;-89
2023/08/04 09:12:09;;;;;;;18.70;16.70;;;;;;;26.84;46.20;100133.19;107831;1257;69258;-89
2023/08/04 09:15:01;;;;;;;19.00;16.90;;;;;;;26.84;46.14;100134.55;107448;1258;69092;-89
2023/08/04 09:17:37;;;;;;;20.70;18.60;;;;;;;26.85;46.02;100132.31;107511;1257;73217;-89
2023/08/04 09:20:04;;;;;;;19.80;17.70;;;;;;;26.86;46.03;100134.25;107703;1262;69265;-89
2023/08/04 09:22:31;;;;;;;23.40;21.00;;;;;;;26.87;45.90;100130.47;107659;1261;69242;-88
2023/08/04 09:25:01;;;;;;;23.90;21.40;;;;;;;26.88;45.88;100131.27;107785;1257;69165;-88
2023/08/04 09:27:31;;;;;;;22.30;19.90;;;;;;;26.89;45.56;100130.21;107527;1257;69194;-89
2023/08/04 09:30:03;;;;;;;;;;;;;;;26.90;45.47;100128.90;107902;1254;74406;-89
2023/08/04 09:32:29;;;;;;;21.60;19.40;;;;;;;26.88;45.61;100125.22;107459;1260;69190;-89
2023/08/04 09:34:59;;;;;;;20.60;18.60;;;;;;;26.89;45.46;100122.49;107727;1257;69164;-89
2023/08/04 09:37:24;;;;;;;21.20;18.00;;;;;;;26.90;45.37;100123.70;107693;1257;69139;-89
2023/08/04 09:39:50;;;;;;;22.80;18.10;;;;;;;26.92;45.29;100123.46;107647;1263;67277;-89
2023/08/04 09:42:18;;;;;;;21.20;19.00;;;;;;;26.93;45.15;100119.02;107954;1257;69231;-88
2023/08/04 09:44:50;;;;;;;22.70;20.40;;;;;;;26.94;45.09;100116.42;107612;1260;69498;-93
2023/08/04 09:47:15;;;;;;;21.30;19.10;;;;;;;26.95;45.26;100112.41;107638;1257;69740;-89
2023/08/04 09:49:41;;;;;;;22.70;20.40;;;;;;;26.95;44.81;100110.02;107903;1257;69165;-89
2023/08/04 09:52:07;;;;;;;24.50;20.40;;;;;;;26.96;45.00;100110.82;108011;1257;69151;-89
2023/08/04 09:54:32;;;;;;;26.60;23.80;;;;;;;26.97;44.98;100110.55;107926;1257;69235;-89
2023/08/04 09:56:58;;;;;;;26.80;24.20;;;;;;;26.97;44.84;100106.39;107835;1256;69143;-89
2023/08/04 09:59:23;;;;;;;24.90;22.20;;;;;;;26.97;44.63;100106.77;107705;1256;69065;-89
2023/08/04 10:01:49;;;;;;;24.90;22.40;;;;;;;26.98;44.64;100103.42;107579;1257;70255;-89
2023/08/04 10:04:14;;;;;;;23.50;21.20;;;;;;;26.98;44.57;100102.15;107886;1257;69171;-89
2023/08/04 10:06:40;;;;;;;23.60;21.20;;;;;;;26.98;44.58;100102.60;107712;1257;69200;-89
2023/08/04 10:09:06;;;;;;;19.80;17.60;;;;;;;26.98;44.36;100096.82;107883;1260;69212;-89
2023/08/04 10:14:16;;;;;;;19.50;17.40;;;;;;;27.00;44.64;100090.98;107748;1261;73609;-89
2023/08/04 10:16:44;;;;;;;18.40;16.20;;;;;;;27.01;44.58;100089.40;107588;1260;69152;-90
2023/08/04 10:19:09;;;;;;;22.00;17.90;;;;;;;27.02;44.37;100090.30;107954;1257;69154;-89
2023/08/04 10:21:38;;;;;;;23.40;20.90;;;;;;;27.03;44.49;100094.20;107934;1257;67816;-89
2023/08/04 10:24:06;;;;;;;22.70;20.10;;;;;;;27.03;44.53;100090.88;107897;1257;69180;-89
2023/08/04 10:29:11;;;;;;;25.70;20.50;;;;;;;27.04;44.45;100089.25;107944;1259;69072;-89
2023/08/04 10:31:52;;;;;;;25.90;23.00;;;;;;;27.05;44.29;100084.74;108063;1256;69196;-89
2023/08/04 10:34:22;;;;;;;28.90;25.90;;;;;;;27.05;44.35;100084.98;107991;1257;69056;-88
2023/08/04 10:37:10;;;;;;;33.30;28.80;;;;;;;27.06;44.37;100081.38;107656;1257;69098;-89
2023/08/04 10:39:44;;;;;;;38.10;28.70;;;;;;;27.07;44.12;100076.58;107880;1257;74424;-88
2023/08/04 10:42:11;;;;;;;29.10;25.90;;;;;;;27.07;44.17;100074.50;107905;1258;69040;-88
2023/08/04 10:45:04;;;;;;;36.00;30.20;;;;;;;27.09;44.38;100074.23;107791;1258;69117;-90
2023/08/04 10:47:52;;;;;;;26.50;23.60;;;;;;;27.09;44.40;100067.67;107790;1257;69088;-93
2023/08/04 10:50:18;;;;;;;25.20;22.00;;;;;;;27.10;44.27;100071.20;107599;1260;69219;-89
2023/08/04 10:52:43;;;;;;;28.00;24.10;;;;;;;27.11;44.40;100068.93;107831;1257;69187;-89
2023/08/04 10:55:13;;;;;;;33.10;25.90;;;;;;;27.12;44.47;100071.42;107688;1264;69248;-89
2023/08/04 10:57:39;;;;;;;28.30;23.70;;;;;;;27.13;44.55;100067.95;107931;1258;67848;-89
2023/08/04 11:00:09;;;;;;;37.70;31.40;;;;;;;27.15;44.56;100067.42;107896;1256;69187;-89
2023/08/04 11:02:35;;;;;;;28.50;24.80;;;;;;;27.16;44.69;100062.53;107893;1257;69180;-90
2023/08/04 11:05:06;;;;;;;37.20;32.10;;;;;;;27.16;44.55;100061.71;107387;1257;69109;-89
2023/08/04 11:07:32;;;;;;;29.50;26.40;;;;;;;27.16;44.43;100061.14;107666;1260;69093;-89
2023/08/04 11:10:07;;;;;;;38.00;33.90;;;;;;;27.17;44.32;100057.61;107486;1257;69302;-89
2023/08/04 11:12:33;;;;;;;22.60;20.40;;;;;;;27.17;44.35;100055.61;107443;1263;69283;-89
2023/08/04 11:14:59;;;;;;;20.90;18.50;;;;;;;27.17;44.31;100052.50;107476;1257;69227;-89
2023/08/04 11:17:32;;;;;;;18.40;16.10;;;;;;;27.18;44.25;100052.46;107483;1257;69193;-93
2023/08/04 11:19:58;;;;;;;15.50;13.80;;;;;;;27.19;44.24;100046.45;107610;1257;69210;-89
2023/08/04 11:22:24;;;;;;;17.00;13.10;;;;;;;27.20;44.18;100044.70;107853;1257;69248;-88
2023/08/04 11:24:51;;;;;;;14.10;11.10;;;;;;;27.21;44.10;100045.49;108219;1258;69226;-89
2023/08/04 11:27:16;;;;;;;15.10;10.70;;;;;;;27.22;44.03;100046.64;108810;1257;66916;-89
2023/08/04 11:29:42;;;;;;;12.30;10.70;;;;;;;27.24;44.08;100042.13;108475;1257;67048;-89
2023/08/04 11:32:30;;;;;;;14.10;11.50;;;;;;;27.28;44.02;100037.48;107599;1257;69238;-89